Time,TemperatureF,DewpointF,PressureIn,WindDirection,WindDirectionDegrees,WindSpeedMPH,WindSpeedGustMPH,Humidity,HourlyPrecipIn,Conditions,Clouds,dailyrainin,SoftwareType,DateUTC
2013-03-10 00:31:00,50.0,40.0,30.22,WSW,250,2.0,-999.0,68,0.00,,,-99.99,,2013-03-10 08:31:00,
2013-03-10 00:42:00,50.0,40.0,30.22,WSW,250,2.0,-999.0,68,0.00,,,-99.99,,2013-03-10 08:42:00,
2013-03-10 00:51:00,50.0,40.0,30.22,WSW,250,2.0,-999.0,68,0.00,,,-99.99,,2013-03-10 08:51:00,
2013-03-10 01:31:00,49.0,42.0,30.22,East,100,3.0,-999.0,77,0.00,,,-99.99,,2013-03-10 09:31:00,
2013-03-10 01:41:00,49.0,42.0,30.22,East,100,3.0,-999.0,77,0.00,,,-99.99,,2013-03-10 09:41:00,
2013-03-10 01:51:00,49.0,42.0,30.22,East,100,3.0,-999.0,77,0.00,,,-99.99,,2013-03-10 09:51:00,
2013-03-10 03:32:00,48.0,42.0,30.22,North,0,0.0,-999.0,79,0.00,,,-99.99,,2013-03-10 10:32:00,
2013-03-10 03:41:00,48.0,42.0,30.22,North,0,0.0,-999.0,79,0.00,,,-99.99,,2013-03-10 10:41:00,
2013-03-10 03:51:00,48.0,42.0,30.22,North,0,0.0,-999.0,79,0.00,,,-99.99,,2013-03-10 10:51:00,
2013-03-10 04:31:00,48.0,43.0,30.21,North,0,0.0,-999.0,83,0.00,,,-99.99,,2013-03-10 11:31:00,
2013-03-10 04:42:00,48.0,43.0,30.21,North,0,0.0,-999.0,83,0.00,,,-99.99,,2013-03-10 11:42:00,
2013-03-10 04:52:00,48.0,43.0,30.21,North,0,0.0,-999.0,83,0.00,,,-99.99,,2013-03-10 11:52:00,
2013-03-10 05:31:00,48.0,43.0,30.20,East,100,1.0,-999.0,83,0.00,,,-99.99,,2013-03-10 12:31:00,
2013-03-10 05:42:00,48.0,43.0,30.20,East,100,1.0,-999.0,83,0.00,,,-99.99,,2013-03-10 12:42:00,
2013-03-10 05:51:00,48.0,43.0,30.20,East,100,1.0,-999.0,83,0.00,,,-99.99,,2013-03-10 12:51:00,
2013-03-10 06:31:00,48.0,42.0,30.21,East,100,1.0,-999.0,81,0.00,,,-99.99,,2013-03-10 13:31:00,
2013-03-10 06:41:00,48.0,42.0,30.21,East,100,1.0,-999.0,81,0.00,,,-99.99,,2013-03-10 13:41:00,
2013-03-10 06:52:00,48.0,42.0,30.21,East,100,1.0,-999.0,81,0.00,,,-99.99,,2013-03-10 13:52:00,
2013-03-10 07:32:00,47.0,42.0,30.22,North,0,0.0,-999.0,83,0.00,,,-99.99,,2013-03-10 14:32:00,
2013-03-10 07:41:00,47.0,42.0,30.22,North,0,0.0,-999.0,83,0.00,,,-99.99,,2013-03-10 14:41:00,
2013-03-10 07:51:00,47.0,42.0,30.22,North,0,0.0,-999.0,83,0.00,,,-99.99,,2013-03-10 14:51:00,
2013-03-10 08:32:00,47.0,42.0,30.24,East,100,1.0,-999.0,83,0.00,,,-99.99,,2013-03-10 15:32:00,
2013-03-10 08:42:00,47.0,42.0,30.24,East,100,1.0,-999.0,83,0.00,,,-99.99,,2013-03-10 15:42:00,
2013-03-10 08:51:00,47.0,42.0,30.24,East,100,1.0,-999.0,83,0.00,,,-99.99,,2013-03-10 15:51:00,
2013-03-10 11:21:00,55.0,46.0,30.25,West,270,2.0,-999.0,72,0.00,,,-99.99,,2013-03-10 18:21:00,
2013-03-10 11:31:00,55.0,46.0,30.25,West,270,2.0,-999.0,72,0.00,,,-99.99,,2013-03-10 18:31:00,
2013-03-10 11:41:00,55.0,46.0,30.25,West,270,2.0,-999.0,72,0.00,,,-99.99,,2013-03-10 18:41:00,
2013-03-10 11:52:00,55.0,46.0,30.25,West,270,2.0,-999.0,72,0.00,,,-99.99,,2013-03-10 18:52:00,
2013-03-10 12:21:00,54.0,48.0,30.24,WSW,250,3.0,-999.0,80,0.00,,,-99.99,,2013-03-10 19:21:00,
2013-03-10 12:31:00,54.0,48.0,30.24,WSW,250,3.0,-999.0,80,0.00,,,-99.99,,2013-03-10 19:31:00,
2013-03-10 12:41:00,54.0,48.0,30.24,WSW,250,3.0,-999.0,80,0.00,,,-99.99,,2013-03-10 19:41:00,
2013-03-10 12:52:00,54.0,48.0,30.24,WSW,250,3.0,-999.0,80,0.00,,,-99.99,,2013-03-10 19:52:00,
2013-03-10 13:22:00,55.0,49.0,30.23,West,260,6.0,-999.0,81,0.00,,,-99.99,,2013-03-10 20:22:00,
2013-03-10 13:32:00,55.0,49.0,30.23,West,260,6.0,-999.0,81,0.00,,,-99.99,,2013-03-10 20:32:00,
2013-03-10 14:22:00,61.0,51.0,30.21,WSW,240,3.0,-999.0,70,0.00,,,-99.99,,2013-03-10 21:22:00,
2013-03-10 14:32:00,61.0,51.0,30.21,WSW,240,3.0,-999.0,70,0.00,,,-99.99,,2013-03-10 21:32:00,
2013-03-10 14:42:00,61.0,51.0,30.21,WSW,240,3.0,-999.0,70,0.00,,,-99.99,,2013-03-10 21:42:00,
2013-03-10 14:52:00,61.0,51.0,30.21,WSW,240,3.0,-999.0,70,0.00,,,-99.99,,2013-03-10 21:52:00,
2013-03-10 15:22:00,65.0,50.0,30.19,West,270,4.0,-999.0,59,0.00,,,-99.99,,2013-03-10 22:22:00,
2013-03-10 15:32:00,65.0,50.0,30.19,West,270,4.0,-999.0,59,0.00,,,-99.99,,2013-03-10 22:32:00,
2013-03-10 15:42:00,65.0,50.0,30.19,West,270,4.0,-999.0,59,0.00,,,-99.99,,2013-03-10 22:42:00,
2013-03-10 15:52:00,65.0,50.0,30.19,West,270,4.0,-999.0,59,0.00,,,-99.99,,2013-03-10 22:52:00,
2013-03-10 16:22:00,66.0,46.0,30.17,WNW,290,6.0,-999.0,49,0.00,,,-99.99,,2013-03-10 23:22:00,
2013-03-10 16:32:00,66.0,46.0,30.17,WNW,290,6.0,-999.0,49,0.00,,,-99.99,,2013-03-10 23:32:00,
2013-03-10 16:42:00,66.0,46.0,30.17,WNW,290,6.0,-999.0,49,0.00,,,-99.99,,2013-03-10 23:42:00,
2013-03-10 16:52:00,66.0,46.0,30.17,WNW,290,6.0,-999.0,49,0.00,,,-99.99,,2013-03-10 23:52:00,
2013-03-10 17:22:00,62.0,47.0,30.16,West,270,9.0,-999.0,58,0.00,,,-99.99,,2013-03-11 00:22:00,
2013-03-10 17:32:00,62.0,47.0,30.16,West,270,9.0,-999.0,58,0.00,,,-99.99,,2013-03-11 00:32:00,
2013-03-10 17:42:00,62.0,47.0,30.16,West,270,9.0,-999.0,58,0.00,,,-99.99,,2013-03-11 00:42:00,
2013-03-10 17:52:00,62.0,47.0,30.16,West,270,9.0,-999.0,58,0.00,,,-99.99,,2013-03-11 00:52:00,
2013-03-10 18:22:00,64.0,37.0,30.17,West,270,6.0,-999.0,36,0.00,,,-99.99,,2013-03-11 01:22:00,
2013-03-10 18:32:00,64.0,37.0,30.17,West,270,6.0,-999.0,36,0.00,,,-99.99,,2013-03-11 01:32:00,
2013-03-10 18:42:00,64.0,37.0,30.17,West,270,6.0,-999.0,36,0.00,,,-99.99,,2013-03-11 01:42:00,
2013-03-10 18:52:00,64.0,37.0,30.17,West,270,6.0,-999.0,36,0.00,,,-99.99,,2013-03-11 01:52:00,
2013-03-10 19:22:00,60.0,34.0,30.18,West,270,9.0,-999.0,38,0.00,,,-99.99,,2013-03-11 02:22:00,
2013-03-10 19:32:00,60.0,34.0,30.18,West,270,9.0,-999.0,38,0.00,,,-99.99,,2013-03-11 02:32:00,
2013-03-10 19:42:00,60.0,34.0,30.18,West,270,9.0,-999.0,38,0.00,,,-99.99,,2013-03-11 02:42:00,
2013-03-10 19:52:00,60.0,34.0,30.18,West,270,9.0,-999.0,38,0.00,,,-99.99,,2013-03-11 02:52:00,
2013-03-10 20:22:00,58.0,34.0,30.18,West,270,1.0,-999.0,41,0.00,,,-99.99,,2013-03-11 03:22:00,
2013-03-10 20:32:00,58.0,34.0,30.18,West,270,1.0,-999.0,41,0.00,,,-99.99,,2013-03-11 03:32:00,
2013-03-10 20:42:00,58.0,34.0,30.18,West,270,1.0,-999.0,41,0.00,,,-99.99,,2013-03-11 03:42:00,
2013-03-10 20:52:00,58.0,34.0,30.18,West,270,1.0,-999.0,41,0.00,,,-99.99,,2013-03-11 03:52:00,
2013-03-10 21:22:00,59.0,31.0,30.18,North,0,0.0,-999.0,34,0.00,,,-99.99,,2013-03-11 04:22:00,
2013-03-10 21:32:00,59.0,31.0,30.18,North,0,0.0,-999.0,34,0.00,,,-99.99,,2013-03-11 04:32:00,
2013-03-10 21:42:00,59.0,31.0,30.18,North,0,0.0,-999.0,34,0.00,,,-99.99,,2013-03-11 04:42:00,
2013-03-10 21:52:00,59.0,31.0,30.18,North,0,0.0,-999.0,34,0.00,,,-99.99,,2013-03-11 04:52:00,
2013-03-10 22:22:00,60.0,33.0,30.18,West,280,2.0,-999.0,36,0.00,,,-99.99,,2013-03-11 05:22:00,
2013-03-10 22:32:00,60.0,33.0,30.18,West,280,2.0,-999.0,36,0.00,,,-99.99,,2013-03-11 05:32:00,
2013-03-10 23:22:00,58.0,33.0,30.18,North,0,0.0,-999.0,39,0.00,,,-99.99,,2013-03-11 06:22:00,
2013-03-10 23:32:00,58.0,33.0,30.18,North,0,0.0,-999.0,39,0.00,,,-99.99,,2013-03-11 06:32:00,
2013-03-10 23:42:00,58.0,33.0,30.18,North,0,0.0,-999.0,39,0.00,,,-99.99,,2013-03-11 06:42:00,
2013-03-10 23:52:00,58.0,33.0,30.18,North,0,0.0,-999.0,39,0.00,,,-99.99,,2013-03-11 06:52:00,